createdAt,value
2023-05-12T00:01:17.248Z,98912.94
2023-05-12T00:03:44.228Z,98910.28
2023-05-12T00:06:11.459Z,98909.19
2023-05-12T00:08:38.298Z,98907.50
2023-05-12T00:11:04.950Z,98907.50
2023-05-12T00:13:31.587Z,98904.13
2023-05-12T00:15:59.338Z,98898.25
2023-05-12T00:18:28.285Z,98904.41
2023-05-12T00:20:55.680Z,98900.75
2023-05-12T00:23:23.016Z,98906.91
2023-05-12T00:25:50.342Z,98902.44
2023-05-12T00:28:18.662Z,98903.28
2023-05-12T00:30:45.571Z,98895.59
2023-05-12T00:33:12.215Z,98897.69
2023-05-12T00:35:38.819Z,98896.00
2023-05-12T00:38:05.417Z,98893.50
2023-05-12T00:40:32.091Z,98899.66
2023-05-12T00:42:58.723Z,98893.22
2023-05-12T00:45:25.409Z,98894.19
2023-05-12T00:47:53.472Z,98896.00
2023-05-12T00:50:21.203Z,98898.53
2023-05-12T00:52:51.885Z,98899.66
2023-05-12T00:55:18.976Z,98897.00
2023-05-12T00:57:45.891Z,98893.63
2023-05-12T01:00:13.062Z,98892.91
2023-05-12T01:02:40.234Z,98895.44
2023-05-12T01:05:07.172Z,98889.28
2023-05-12T01:07:33.788Z,98891.09
2023-05-12T01:10:00.513Z,98894.59
2023-05-12T01:12:28.141Z,98893.75
2023-05-12T01:14:56.996Z,98887.59
2023-05-12T01:17:34.312Z,98892.22
2023-05-12T01:20:04.588Z,98898.31
2023-05-12T01:22:33.741Z,98903.50
2023-05-12T01:25:07.688Z,98895.66
2023-05-12T01:27:34.806Z,98891.19
2023-05-12T01:30:04.065Z,98897.06
2023-05-12T01:32:30.921Z,98897.06
2023-05-12T01:34:57.721Z,98899.03
2023-05-12T01:37:27.140Z,98902.66
2023-05-12T01:39:53.956Z,98905.84
2023-05-12T01:42:20.824Z,98902.34
2023-05-12T01:44:47.465Z,98903.19
2023-05-12T01:47:15.877Z,98908.50
2023-05-12T01:49:42.809Z,98904.88
2023-05-12T01:52:09.484Z,98907.53
2023-05-12T01:54:36.220Z,98909.72
2023-05-12T01:57:02.908Z,98909.72
2023-05-12T01:59:29.604Z,98917.69
2023-05-12T02:01:56.269Z,98912.38
2023-05-12T02:04:23.076Z,98916.03
2023-05-12T02:06:49.802Z,98909.72
2023-05-12T02:09:16.450Z,98914.06
2023-05-12T02:11:43.040Z,98915.75
2023-05-12T02:14:09.672Z,98917.69
2023-05-12T02:16:36.418Z,98920.31
2023-05-12T02:19:03.062Z,98917.69
2023-05-12T02:21:29.690Z,98924.66
2023-05-12T02:23:56.426Z,98922.84
2023-05-12T02:26:23.043Z,98922.00
2023-05-12T02:28:49.668Z,98916.88
2023-05-12T02:31:16.289Z,98924.81
2023-05-12T02:33:43.216Z,98928.56
2023-05-12T02:36:09.838Z,98925.06
2023-05-12T02:38:36.674Z,98928.56
2023-05-12T02:41:03.325Z,98925.91
2023-05-12T02:43:29.926Z,98927.84
2023-05-12T02:45:56.534Z,98927.16
2023-05-12T02:48:23.124Z,98923.78
2023-05-12T02:50:49.812Z,98923.78
2023-05-12T02:53:16.473Z,98922.22
2023-05-12T02:55:43.122Z,98917.06
2023-05-12T02:58:10.274Z,98914.56
2023-05-12T03:00:36.967Z,98919.13
2023-05-12T03:03:03.650Z,98923.59
2023-05-12T03:05:30.758Z,98919.25
2023-05-12T03:07:57.489Z,98911.31
2023-05-12T03:10:24.122Z,98922.91
2023-05-12T03:12:50.908Z,98915.91
2023-05-12T03:15:17.594Z,98916.88
2023-05-12T03:17:44.255Z,98920.50
2023-05-12T03:20:11.257Z,98921.47
2023-05-12T03:22:38.203Z,98927.06
2023-05-12T03:25:05.977Z,98920.19
2023-05-12T03:27:33.136Z,98920.31
2023-05-12T03:30:05.092Z,98917.81
2023-05-12T03:32:31.853Z,98930.34
2023-05-12T03:34:58.712Z,98931.44
2023-05-12T03:37:25.361Z,98927.09
2023-05-12T03:39:51.994Z,98935.34
2023-05-12T03:42:19.297Z,98930.16
2023-05-12T03:44:45.968Z,98935.56
2023-05-12T03:47:13.695Z,98937.53
2023-05-12T03:49:40.717Z,98926.47
2023-05-12T03:52:07.558Z,98929.13
2023-05-12T03:54:36.019Z,98918.53
2023-05-12T03:57:03.954Z,98923.84
2023-05-12T03:59:31.682Z,98931.06
2023-05-12T04:01:59.075Z,98926.00
2023-05-12T04:04:25.692Z,98929.63
2023-05-12T04:06:52.509Z,98928.91
2023-05-12T04:09:20.114Z,98934.09
2023-05-12T04:11:46.735Z,98941.91
2023-05-12T04:14:13.367Z,98941.91
2023-05-12T04:16:40.953Z,98944.44
2023-05-12T04:19:07.766Z,98941.66
2023-05-12T04:21:34.514Z,98937.78
2023-05-12T04:24:01.154Z,98942.00
2023-05-12T04:26:27.776Z,98938.94
2023-05-12T04:28:54.458Z,98937.88
2023-05-12T04:31:21.204Z,98938.44
2023-05-12T04:33:48.482Z,98943.22
2023-05-12T04:36:15.351Z,98948.97
2023-05-12T04:38:42.163Z,98945.78
2023-05-12T04:41:09.317Z,98946.94
2023-05-12T04:46:05.723Z,98952.22
2023-05-12T04:48:32.435Z,98953.94
2023-05-12T04:51:00.274Z,98951.19
2023-05-12T04:53:27.799Z,98950.28
2023-05-12T04:55:56.540Z,98961.22
2023-05-12T04:58:23.443Z,98952.97
2023-05-12T05:00:50.178Z,98955.22
2023-05-12T05:03:16.897Z,98955.09
2023-05-12T05:05:43.709Z,98953.53
2023-05-12T05:08:10.391Z,98959.16
2023-05-12T05:10:37.236Z,98955.72
2023-05-12T05:13:04.053Z,98958.78
2023-05-12T05:15:30.898Z,98961.63
2023-05-12T05:17:59.374Z,98961.09
2023-05-12T05:20:29.242Z,98957.88
2023-05-12T05:22:56.119Z,98964.34
2023-05-12T05:25:22.976Z,98963.22
2023-05-12T05:27:49.853Z,98966.31
2023-05-12T05:30:16.888Z,98968.16
2023-05-12T05:32:43.728Z,98969.28
2023-05-12T05:35:10.720Z,98970.56
2023-05-12T05:37:37.386Z,98968.34
2023-05-12T05:40:04.888Z,98969.47
2023-05-12T05:42:31.469Z,98972.00
2023-05-12T05:44:58.066Z,98979.53
2023-05-12T05:47:24.832Z,98972.56
2023-05-12T05:49:51.486Z,98974.78
2023-05-12T05:52:18.200Z,98975.91
2023-05-12T05:54:44.900Z,98984.31
2023-05-12T05:57:11.537Z,98975.91
2023-05-12T05:59:38.512Z,98978.84
2023-05-12T06:02:05.463Z,98980.09
2023-05-12T06:04:32.208Z,98991.31
2023-05-12T06:06:58.777Z,98989.06
2023-05-12T06:09:25.515Z,98984.84
2023-05-12T06:11:52.274Z,98986.81
2023-05-12T06:14:18.983Z,98985.94
2023-05-12T06:16:45.599Z,98992.38
2023-05-12T06:19:12.776Z,98987.03
2023-05-12T06:21:39.524Z,98987.00
2023-05-12T06:24:06.571Z,98991.22
2023-05-12T06:26:33.327Z,98995.28
2023-05-12T06:28:59.973Z,98994.00
2023-05-12T06:31:27.008Z,98998.75
2023-05-12T06:33:53.706Z,98991.03
2023-05-12T06:36:20.531Z,98987.50
2023-05-12T06:38:47.251Z,98994.09
2023-05-12T06:41:13.868Z,98989.31
2023-05-12T06:43:40.509Z,98987.91
2023-05-12T06:46:07.163Z,98986.31
2023-05-12T06:48:33.804Z,98981.31
2023-05-12T06:51:00.524Z,98990.00
2023-05-12T06:53:27.457Z,98992.06
2023-05-12T06:55:55.183Z,98990.25
2023-05-12T06:58:22.275Z,98992.81
2023-05-12T07:00:49.076Z,98991.16
2023-05-12T07:03:16.017Z,98993.91
2023-05-12T07:05:42.819Z,98995.59
2023-05-12T07:08:09.600Z,99003.16
2023-05-12T07:10:36.280Z,98995.38
2023-05-12T07:13:02.924Z,99005.47
2023-05-12T07:15:31.272Z,99003.78
2023-05-12T07:17:59.394Z,99000.88
2023-05-12T07:20:26.233Z,99001.22
2023-05-12T07:22:54.732Z,99002.22
2023-05-12T07:25:22.298Z,98992.91
2023-05-12T07:27:50.013Z,98995.16
2023-05-12T07:30:17.265Z,98998.06
2023-05-12T07:32:44.095Z,98984.34
2023-05-12T07:35:10.800Z,98987.91
2023-05-12T07:37:38.234Z,98988.47
2023-05-12T07:40:05.270Z,98980.84
2023-05-12T07:42:31.888Z,98987.41
2023-05-12T07:44:58.762Z,98984.31
2023-05-12T07:47:25.570Z,98984.34
2023-05-12T07:49:52.318Z,98987.03
2023-05-12T07:52:18.987Z,98980.53
2023-05-12T07:54:45.676Z,98978.66
2023-05-12T07:57:12.293Z,98975.84
2023-05-12T07:59:38.941Z,98979.06
2023-05-12T08:02:05.699Z,98972.53
2023-05-12T08:04:32.473Z,98971.22
2023-05-12T08:06:59.110Z,98971.75
2023-05-12T08:09:25.836Z,98976.09
2023-05-12T08:11:52.500Z,98975.56
2023-05-12T08:14:19.123Z,98974.22
2023-05-12T08:16:46.933Z,98972.97
2023-05-12T08:19:14.072Z,98967.63
2023-05-12T08:21:40.732Z,98969.09
2023-05-12T08:24:07.537Z,98964.56
2023-05-12T08:26:34.186Z,98967.22
2023-05-12T08:29:01.643Z,98967.81
2023-05-12T08:31:28.271Z,98972.97
2023-05-12T08:36:26.211Z,98969.97
2023-05-12T08:38:52.956Z,98967.28
2023-05-12T08:41:25.578Z,98972.50
2023-05-12T08:43:53.010Z,98972.25
2023-05-12T08:46:20.319Z,98973.84
2023-05-12T08:48:50.182Z,98976.53
2023-05-12T08:51:19.311Z,98973.91
2023-05-12T08:53:49.218Z,98974.41
2023-05-12T08:58:49.850Z,98975.69
2023-05-12T09:01:18.116Z,98980.88
2023-05-12T09:03:45.507Z,98985.75
2023-05-12T09:06:13.374Z,98978.94
2023-05-12T09:08:40.915Z,98977.41
2023-05-12T09:11:12.095Z,98985.59
2023-05-12T09:13:46.185Z,98984.78
2023-05-12T09:16:13.729Z,98988.00
2023-05-12T09:18:49.443Z,98990.47
2023-05-12T09:21:16.202Z,98992.47
2023-05-12T09:23:56.185Z,98992.81
2023-05-12T09:26:24.024Z,98984.94
2023-05-12T09:28:53.229Z,98995.81
2023-05-12T09:31:22.748Z,98988.59
2023-05-12T09:33:50.844Z,98996.31
2023-05-12T09:36:19.413Z,98991.97
2023-05-12T09:38:46.067Z,99000.50
2023-05-12T09:41:13.273Z,98997.63
2023-05-12T09:43:46.675Z,99002.75
2023-05-12T09:46:14.717Z,98999.03
2023-05-12T09:48:42.002Z,98993.31
2023-05-12T09:51:10.922Z,98992.59
2023-05-12T09:53:43.014Z,98999.09
2023-05-12T09:56:11.518Z,98993.66
2023-05-12T09:58:43.856Z,98986.94
2023-05-12T10:01:21.568Z,98991.72
2023-05-12T10:03:53.128Z,98986.47
2023-05-12T10:06:32.308Z,98988.72
2023-05-12T10:09:18.496Z,98983.81
2023-05-12T10:11:47.455Z,98983.78
2023-05-12T10:14:14.431Z,98989.13
2023-05-12T10:16:41.514Z,98983.91
2023-05-12T10:19:10.308Z,98976.03
2023-05-12T10:21:39.087Z,98982.81
2023-05-12T10:24:06.321Z,98981.75
2023-05-12T10:26:39.939Z,98985.81
2023-05-12T10:29:07.044Z,98983.47
2023-05-12T10:31:36.112Z,98972.56
2023-05-12T10:34:03.577Z,98965.31
2023-05-12T10:36:33.556Z,98968.94
2023-05-12T10:39:06.455Z,98978.81
2023-05-12T10:41:35.308Z,98975.88
2023-05-12T10:44:02.140Z,98971.78
2023-05-12T10:46:30.563Z,98979.31
2023-05-12T10:49:04.544Z,98969.88
2023-05-12T10:51:33.341Z,98980.22
2023-05-12T10:54:08.043Z,98972.06
2023-05-12T10:56:38.402Z,98970.31
2023-05-12T10:59:14.876Z,98969.13
2023-05-12T11:01:43.876Z,98959.63
2023-05-12T11:04:16.213Z,98960.31
2023-05-12T11:06:45.202Z,98958.69
2023-05-12T11:09:13.610Z,98966.56
2023-05-12T11:11:40.852Z,98967.56
2023-05-12T11:14:08.567Z,98965.56
2023-05-12T11:16:42.166Z,98966.38
2023-05-12T11:19:08.970Z,98966.44
2023-05-12T11:21:36.145Z,98964.59
2023-05-12T11:24:03.560Z,98963.25
2023-05-12T11:26:30.729Z,98952.34
2023-05-12T11:28:58.821Z,98950.72
2023-05-12T11:31:26.127Z,98958.81
2023-05-12T11:34:11.866Z,98954.34
2023-05-12T11:36:42.311Z,98954.81
2023-05-12T11:39:23.394Z,98959.94
2023-05-12T11:41:56.672Z,98958.75
2023-05-12T11:44:29.350Z,98970.75
2023-05-12T11:47:11.523Z,98965.22
2023-05-12T11:49:52.374Z,98964.44
2023-05-12T11:52:21.258Z,98959.59
2023-05-12T11:54:52.707Z,98960.41
2023-05-12T11:57:30.851Z,98963.28
2023-05-12T12:00:07.039Z,98967.34
2023-05-12T12:02:36.051Z,98965.44
2023-05-12T12:05:03.158Z,98960.72
2023-05-12T12:07:35.664Z,98962.94
2023-05-12T12:10:16.858Z,98956.84
2023-05-12T12:12:44.214Z,98967.91
2023-05-12T12:15:12.082Z,98958.63
2023-05-12T12:17:40.214Z,98961.88
2023-05-12T12:20:08.162Z,98965.50
2023-05-12T12:22:35.426Z,98961.16
2023-05-12T12:25:05.159Z,98965.63
2023-05-12T12:27:32.076Z,98964.56
2023-05-12T12:29:59.090Z,98965.69
2023-05-12T12:32:25.790Z,98964.03
2023-05-12T12:34:53.441Z,98958.41
2023-05-12T12:37:20.154Z,98969.75
2023-05-12T12:39:47.970Z,98968.28
2023-05-12T12:42:15.729Z,98973.75
2023-05-12T12:44:42.634Z,98968.75
2023-05-12T12:47:09.606Z,98974.72
2023-05-12T12:49:36.385Z,98972.09
2023-05-12T12:52:03.137Z,98971.88
2023-05-12T12:54:29.880Z,98971.97
2023-05-12T12:56:56.878Z,98977.91
2023-05-12T12:59:23.614Z,98968.09
2023-05-12T13:01:50.623Z,98966.41
2023-05-12T13:04:22.334Z,98968.31
2023-05-12T13:06:49.598Z,98973.00
2023-05-12T13:09:19.782Z,98960.59
2023-05-12T13:11:47.387Z,98968.69
2023-05-12T13:14:14.351Z,98959.28
2023-05-12T13:16:41.284Z,98969.53
2023-05-12T13:19:08.458Z,98967.69
2023-05-12T13:21:35.398Z,98958.50
2023-05-12T13:24:02.191Z,98964.00
2023-05-12T13:26:28.914Z,98968.38
2023-05-12T13:28:55.696Z,98963.88
2023-05-12T13:31:22.566Z,98965.56
2023-05-12T13:33:49.374Z,98975.56
2023-05-12T13:36:16.221Z,98970.19
2023-05-12T13:38:43.222Z,98980.38
2023-05-12T13:41:10.135Z,98970.44
2023-05-12T13:43:37.381Z,98972.44
2023-05-12T13:46:04.148Z,98971.38
2023-05-12T13:48:31.176Z,98966.84
2023-05-12T13:50:58.952Z,98962.00
2023-05-12T13:53:25.689Z,98963.44
2023-05-12T13:55:52.384Z,98966.13
2023-05-12T13:58:19.275Z,98958.97
2023-05-12T14:00:47.999Z,98964.59
2023-05-12T14:03:15.841Z,98959.59
2023-05-12T14:05:42.758Z,98959.66
2023-05-12T14:08:09.573Z,98956.38
2023-05-12T14:10:36.528Z,98951.09
2023-05-12T14:13:03.491Z,98945.56
2023-05-12T14:15:47.185Z,98941.00
2023-05-12T14:18:16.427Z,98947.53
2023-05-12T14:20:43.245Z,98937.22
2023-05-12T14:23:09.973Z,98932.94
2023-05-12T14:25:36.724Z,98938.34
2023-05-12T14:28:03.848Z,98941.16
2023-05-12T14:30:30.660Z,98946.59
2023-05-12T14:32:57.448Z,98952.25
2023-05-12T14:35:27.681Z,98944.16
2023-05-12T14:37:55.232Z,98947.66
2023-05-12T14:40:22.152Z,98955.94
2023-05-12T14:42:49.099Z,98955.44
2023-05-12T14:45:16.102Z,98956.72
2023-05-12T14:47:42.871Z,98961.28
2023-05-12T14:50:10.589Z,98955.81
2023-05-12T14:52:40.218Z,98961.38
2023-05-12T14:55:11.901Z,98957.31
2023-05-12T14:57:42.422Z,98952.22
2023-05-12T15:00:13.675Z,98961.19
2023-05-12T15:02:41.907Z,98959.00
2023-05-12T15:05:10.565Z,98956.53
2023-05-12T15:07:37.977Z,98957.47
2023-05-12T15:10:05.812Z,98954.75
2023-05-12T15:12:33.408Z,98954.06
2023-05-12T15:15:02.322Z,98955.28
2023-05-12T15:17:29.321Z,98950.28
2023-05-12T15:19:56.394Z,98952.41
2023-05-12T15:22:23.073Z,98949.28
2023-05-12T15:24:49.722Z,98950.78
2023-05-12T15:27:16.359Z,98949.81
2023-05-12T15:29:43.116Z,98957.06
2023-05-12T15:32:09.850Z,98960.25
2023-05-12T15:34:36.687Z,98968.00
2023-05-12T15:37:03.736Z,98957.06
2023-05-12T15:39:30.426Z,98966.75
2023-05-12T15:41:57.296Z,98962.50
2023-05-12T15:44:24.766Z,98963.78
2023-05-12T15:46:51.505Z,98962.09
2023-05-12T15:49:18.435Z,98969.25
2023-05-12T15:51:45.188Z,98964.53
2023-05-12T15:54:12.609Z,98964.53
2023-05-12T15:56:39.422Z,98966.63
2023-05-12T15:59:06.956Z,98963.94
2023-05-12T16:01:34.031Z,98966.38
2023-05-12T16:04:01.061Z,98961.34
2023-05-12T16:06:27.840Z,98973.88
2023-05-12T16:08:54.586Z,98985.75
2023-05-12T16:11:21.602Z,98990.63
2023-05-12T16:13:48.499Z,98991.03
2023-05-12T16:16:16.751Z,98987.69
2023-05-12T16:18:43.678Z,98979.34
2023-05-12T16:21:11.859Z,98983.66
2023-05-12T16:23:38.643Z,98974.94
2023-05-12T16:26:06.495Z,98978.47
2023-05-12T16:28:34.667Z,98978.50
2023-05-12T16:31:02.542Z,98979.84
2023-05-12T16:33:29.940Z,98982.72
2023-05-12T16:35:56.733Z,98978.78
2023-05-12T16:38:23.569Z,98983.31
2023-05-12T16:40:50.530Z,98988.69
2023-05-12T16:43:17.274Z,98982.81
2023-05-12T16:46:04.329Z,98991.66
2023-05-12T16:48:34.548Z,98992.63
2023-05-12T16:51:02.596Z,98986.88
2023-05-12T16:53:30.026Z,98998.34
2023-05-12T16:55:57.653Z,98986.41
2023-05-12T16:58:25.226Z,98991.78
2023-05-12T17:00:52.266Z,98992.50
2023-05-12T17:03:19.162Z,98995.34
2023-05-12T17:05:47.115Z,99007.50
2023-05-12T17:08:14.079Z,99003.19
2023-05-12T17:10:40.781Z,98999.34
2023-05-12T17:13:08.231Z,99008.56
2023-05-12T17:15:37.507Z,99006.03
2023-05-12T17:18:04.199Z,99017.50
2023-05-12T17:20:31.019Z,99010.44
2023-05-12T17:22:57.977Z,99014.63
2023-05-12T17:25:25.153Z,99022.16
2023-05-12T17:27:51.880Z,99031.56
2023-05-12T17:30:18.876Z,99045.44
2023-05-12T17:32:45.709Z,99038.63
2023-05-12T17:35:12.560Z,99038.31
2023-05-12T17:37:39.725Z,99044.19
2023-05-12T17:40:08.124Z,99042.03
2023-05-12T17:42:35.395Z,99040.38
2023-05-12T17:45:02.521Z,99041.03
2023-05-12T17:47:29.193Z,99038.03
2023-05-12T17:49:56.743Z,99041.38
2023-05-12T17:52:23.677Z,99034.84
2023-05-12T17:54:55.930Z,99038.19
2023-05-12T17:57:22.964Z,99038.66
2023-05-12T17:59:49.851Z,99036.63
2023-05-12T18:02:16.777Z,99042.81
2023-05-12T18:04:43.653Z,99033.28
2023-05-12T18:07:10.543Z,99031.13
2023-05-12T18:09:37.320Z,99040.16
2023-05-12T18:12:04.349Z,99036.81
2023-05-12T18:14:31.073Z,99043.66
2023-05-12T18:16:57.935Z,99045.66
2023-05-12T18:19:24.925Z,99047.84
2023-05-12T18:21:54.543Z,99047.66
2023-05-12T18:24:21.488Z,99049.81
2023-05-12T18:26:48.346Z,99048.63
2023-05-12T18:29:15.001Z,99052.66
2023-05-12T18:31:44.288Z,99053.63
2023-05-12T18:34:11.272Z,99050.06
2023-05-12T18:36:38.139Z,99057.25
2023-05-12T18:39:06.560Z,99053.88
2023-05-12T18:41:33.318Z,99062.06
2023-05-12T18:44:00.121Z,99057.50
2023-05-12T18:46:27.100Z,99061.81
2023-05-12T18:48:54.024Z,99063.47
2023-05-12T18:51:21.067Z,99058.88
2023-05-12T18:53:47.970Z,99063.69
2023-05-12T18:56:14.758Z,99067.84
2023-05-12T18:58:41.653Z,99072.97
2023-05-12T19:01:08.655Z,99075.44
2023-05-12T19:03:35.609Z,99076.41
2023-05-12T19:06:02.470Z,99079.53
2023-05-12T19:08:29.461Z,99077.50
2023-05-12T19:10:56.328Z,99082.06
2023-05-12T19:13:23.048Z,99085.91
2023-05-12T19:15:49.906Z,99090.72
2023-05-12T19:18:17.378Z,99095.13
2023-05-12T19:20:44.100Z,99101.94
2023-05-12T19:23:11.126Z,99105.91
2023-05-12T19:25:37.963Z,99111.56
2023-05-12T19:28:05.107Z,99103.47
2023-05-12T19:30:32.284Z,99112.38
2023-05-12T19:32:59.351Z,99112.00
2023-05-12T19:35:26.783Z,99110.09
2023-05-12T19:37:53.812Z,99108.97
2023-05-12T19:40:20.752Z,99112.09
2023-05-12T19:42:47.819Z,99115.22
2023-05-12T19:45:15.799Z,99117.94
2023-05-12T19:47:43.123Z,99111.53
2023-05-12T19:50:10.697Z,99118.13
2023-05-12T19:52:38.185Z,99117.06
2023-05-12T19:55:06.842Z,99121.28
2023-05-12T19:57:33.894Z,99121.22
2023-05-12T20:00:00.847Z,99117.72
2023-05-12T20:02:31.069Z,99120.00
2023-05-12T20:05:01.566Z,99119.72
2023-05-12T20:07:28.813Z,99122.13
2023-05-12T20:09:55.834Z,99122.03
2023-05-12T20:12:22.691Z,99123.47
2023-05-12T20:14:50.046Z,99118.84
2023-05-12T20:17:16.816Z,99125.41
2023-05-12T20:19:43.691Z,99124.34
2023-05-12T20:22:10.778Z,99124.19
2023-05-12T20:24:37.550Z,99129.94
2023-05-12T20:27:04.512Z,99122.34
2023-05-12T20:29:31.411Z,99128.25
2023-05-12T20:31:58.262Z,99122.81
2023-05-12T20:34:25.130Z,99131.63
2023-05-12T20:36:52.344Z,99138.47
2023-05-12T20:39:19.907Z,99137.34
2023-05-12T20:41:46.606Z,99134.97
2023-05-12T20:44:13.347Z,99143.53
2023-05-12T20:46:40.338Z,99136.09
2023-05-12T20:49:07.512Z,99138.34
2023-05-12T20:51:34.734Z,99144.88
2023-05-12T20:54:01.703Z,99142.50
2023-05-12T20:56:28.550Z,99134.06
2023-05-12T20:58:57.427Z,99142.34
2023-05-12T21:01:24.528Z,99150.75
2023-05-12T21:03:51.379Z,99151.13
2023-05-12T21:06:18.361Z,99151.41
2023-05-12T21:08:46.829Z,99155.34
2023-05-12T21:11:18.439Z,99159.22
2023-05-12T21:13:47.560Z,99168.47
2023-05-12T21:16:15.467Z,99157.69
2023-05-12T21:18:42.689Z,99163.25
2023-05-12T21:21:09.701Z,99175.72
2023-05-12T21:23:37.675Z,99177.53
2023-05-12T21:26:05.111Z,99179.34
2023-05-12T21:28:32.234Z,99183.69
2023-05-12T21:30:59.212Z,99186.97
2023-05-12T21:33:26.138Z,99189.03
2023-05-12T21:35:53.072Z,99190.88
2023-05-12T21:38:21.041Z,99198.59
2023-05-12T21:40:55.227Z,99195.22
2023-05-12T21:43:22.204Z,99189.34
2023-05-12T21:45:49.149Z,99191.31
2023-05-12T21:48:16.027Z,99193.97
2023-05-12T21:50:42.874Z,99185.56
2023-05-12T21:53:09.755Z,99184.19
2023-05-12T21:55:36.597Z,99185.16
2023-05-12T21:58:03.454Z,99177.78
2023-05-12T22:00:30.894Z,99180.03
2023-05-12T22:02:58.041Z,99171.81
2023-05-12T22:05:25.036Z,99170.59
2023-05-12T22:07:51.972Z,99162.47
2023-05-12T22:10:19.195Z,99188.13
2023-05-12T22:12:46.768Z,99182.06
2023-05-12T22:15:13.510Z,99177.28
2023-05-12T22:17:40.483Z,99179.66
2023-05-12T22:20:09.235Z,99179.41
2023-05-12T22:22:36.257Z,99175.50
2023-05-12T22:25:04.761Z,99174.41
2023-05-12T22:27:31.910Z,99160.41
2023-05-12T22:29:59.044Z,99148.06
2023-05-12T22:32:26.600Z,99152.13
2023-05-12T22:34:54.214Z,99147.53
2023-05-12T22:37:22.444Z,99156.59
2023-05-12T22:39:49.277Z,99162.31
2023-05-12T22:42:15.928Z,99169.31
2023-05-12T22:44:42.567Z,99184.72
2023-05-12T22:47:09.349Z,99193.41
2023-05-12T22:49:36.106Z,99188.78
2023-05-12T22:52:02.736Z,99195.91
2023-05-12T22:54:29.456Z,99185.88
2023-05-12T22:56:56.176Z,99185.16
2023-05-12T22:59:22.941Z,99187.81
2023-05-12T23:01:49.575Z,99188.66
2023-05-12T23:04:16.448Z,99186.59
2023-05-12T23:06:43.522Z,99195.00
2023-05-12T23:09:10.198Z,99190.28
2023-05-12T23:11:36.977Z,99197.66
2023-05-12T23:14:03.620Z,99199.41
2023-05-12T23:16:30.410Z,99197.41
2023-05-12T23:18:57.601Z,99195.47
2023-05-12T23:21:24.265Z,99205.00
2023-05-12T23:23:50.877Z,99208.25
2023-05-12T23:26:17.508Z,99194.09
2023-05-12T23:28:44.117Z,99201.97
2023-05-12T23:31:10.780Z,99197.66
2023-05-12T23:33:37.592Z,99204.44
2023-05-12T23:36:04.650Z,99201.22
2023-05-12T23:38:31.261Z,99204.72
2023-05-12T23:40:57.982Z,99200.69
2023-05-12T23:43:24.700Z,99205.19
2023-05-12T23:45:51.424Z,99205.78
2023-05-12T23:48:18.086Z,99210.97
2023-05-12T23:50:44.666Z,99214.59
2023-05-12T23:53:11.368Z,99216.28
2023-05-12T23:55:38.091Z,99210.13
2023-05-12T23:58:04.843Z,99212.69
